Du har inga inställningar för hoppväder.nu

Hoppväder.nu

Senast uppdaterat 06:04

UTC-tid

2019-11-21 kl. 05:04


Sol och måne

Solen går upp 8:22 och går ner 15:06 (beräknade cirkatider)
Nästa fullmåne blir om 21 dagar (2019-12-12)

METAR

ESSD (Borlänge)
ESSD NIL



ESOE (Örebro)
ESOE NIL=



ESOW (Västerås)
(14 minuter sedan)
ESOW 210450Z AUTO 11007KT 9999 OVC010/// 07/05 Q1025=



ESOK (Karlstad)
(14 minuter sedan)
ESOK 210450Z 07007KT 9999 -RA SCT006 BKN010 06/06 Q1022=






TAF

ESSD (Borlänge)
ESSD



ESOE (Örebro)
(154 minuter sedan)
ESOE 210230Z 2103/2112 06009KT 5000 BKN005 TEMPO 2103/2109 0700 FG VV002=



ESOW (Västerås)
ESOW



ESOK (Karlstad)
(94 minuter sedan)
ESOK 210330Z 2104/2112 08008KT 5000 BKN002 PROB40 2104/2112 1200 -RA BR BKN007=





Kodnycklar till TAF och METAR






LHP

(Borlänge är område F2a i Norra delen)







Spotting

Hur fungerar spotthjälpen och Vindkartan?

Markvind är ca 0 m/s.
Vind på 600 m ca 0 m/s.
Vind på 1500 m ca 0 m/s.
Vind på 3000 m ca 0 m/s.
Rudolf-David flyger ca 41 m/s över marken på finalen.
Du driver ca 0 m bakåt i frifall. (0 m)
Lämplig spot är 7 sekunder eller 288 m innan gropen.
(-7s eller -288 m)
För små grupper eller ensamhoppare bör man vänta 4-5 sekunder mellan grupperna.
För större grupper bör man vänta 7-9 sekunder mellan grupperna.


Vindkartan

Senast uppdaterad 06:04




All data kommer från LFV.se